Terminal Aerodrome Forecast
Issued by NWS

Home | Current Version | Previous Version | Text Only | Print | Product List | Glossary On
Versions: 1 2 3 4 5 6 7 8 9 10 11 12 13 14 15 16
668
FTUS42 KTBW 222339
TAFLAL
TAF
KLAL 222339Z 2300/2324 11005KT P6SM SCT050 SCT250
     FM230200 VRB03KT P6SM SCT250
     FM231400 14008KT P6SM SCT025 SCT250
     FM231700 14006KT P6SM SCT040 SCT250
     FM232000 14006KT P6SM VCTS BKN050CB
      AMD NOT SKED 2302/2311=

USA.gov is the U.S. government's official web portal to all federal, state and local government web resources and services.